Antelope Valley, Nevada Weather observations

Data are for 10 minute period ending at time listed.
 Day   Time   Solar   Ave.   Ave.  Ave.  Vector  Max.   Baro.   Total    
  of    of     Rad.   Air    Rel.  Wind   Wind   Wind  Press.  Precip.   
Year   Day            Temp.  Hum.  Speed  Dir.   Gust                    
2015   (PST)  Kw/m2    F      %     mph   deg.    mph    mb.     in.     
-------------------------------------------------------------------------
  28   21:30   0.00   32.5    88    2.6    49     3.9   858.7    0.00 
  28   21:40   0.00   32.6    89    4.0    86     5.0   858.8    0.00 
  28   21:50   0.00   31.8    89    2.8   160     4.5   858.9    0.00 
  28   22:00   0.00   33.0    90    3.6   129     4.8   859.0    0.00 
  28   22:10   0.00   33.4    88    3.1    90     3.8   859.0    0.00 
  28   22:20   0.00   32.8    85    1.4    94     3.1   859.1    0.00 
  28   22:30   0.00   31.1    88    3.0   311     5.2   859.2    0.00 
  28   22:40   0.00   30.4    90    1.5   160     3.7   859.3    0.00 
  28   22:50   0.00   31.9    90    1.0   121     1.8   859.4    0.00 
  28   23:00   0.00   30.5    89    2.3    95     4.2   859.4    0.00 
  28   23:10   0.00   29.0    91    2.9   124     3.9   859.4    0.00 
  28   23:20   0.00   29.8    92    2.1   112     4.7   859.4    0.00 
  28   23:30   0.00   29.8    92    3.5   122     5.1   859.4    0.00 
  28   23:40   0.00   29.0    91    1.9   124     4.5   859.4    0.00 
  28   23:50   0.00   29.3    92    1.2    23     2.5   859.3    0.00 
  29    0:00   0.00   30.0    91    2.8    56     3.3   859.2    0.00 
  29    0:10   0.00   29.4    92    1.7   145     3.3   859.1    0.00 
  29    0:20   0.00   31.2    91    2.0   122     3.1   859.1    0.00 
  29    0:30   0.00   29.9    90    1.0   119     3.0   859.1    0.00 
  29    0:40   0.00   31.4    92    3.3    90     4.7   859.0    0.00 
  29    0:50   0.00   31.0    90    3.3   100     4.3   859.0    0.00 
  29    1:00   0.00   30.6    90    1.3   344     2.7   858.9    0.00 
  29    1:10   0.00   29.7    90    2.6   308     3.2   858.9    0.00 
  29    1:20   0.00   28.9    91    0.3   321     1.8   859.0    0.00 
  29    1:30   0.00   29.1    92    1.4   231     3.2   859.0    0.00 
  29    1:40   0.00   28.4    92    1.1   203     2.0   859.0    0.00 
  29    1:50   0.00   28.9    93    1.6    64     2.6   858.9    0.00 
  29    2:00   0.00   29.8    92    2.4    51     3.1   858.9    0.00 
  29    2:10   0.00   28.3    92    0.3    78     1.8   858.9    0.00 
  29    2:20   0.00   28.5    93    0.8    57     2.3   859.0    0.00 
  29    2:30   0.00   28.5    92    0.6   340     2.1   858.9    0.00 
  29    2:40   0.00   28.6    93    0.7    98     2.2   858.8    0.00 
  29    2:50   0.00   29.7    93    3.5    57     6.1   858.6    0.00 
  29    3:00   0.00   30.8    92    5.0    50     6.1   858.4    0.00 
  29    3:10   0.00   32.0    90    5.3    56     6.6   858.3    0.00 
  29    3:20   0.00   32.0    90    5.6    54     6.9   858.2    0.00 
  29    3:30   0.00   31.8    90    5.8    63     7.5   858.2    0.00 
  29    3:40   0.00   31.4    90    6.0    53     7.4   858.0    0.00 
  29    3:50   0.00   31.2    92    6.4    64     7.5   857.9    0.00 
  29    4:00   0.00   31.7    91    7.1    68     9.1   857.9    0.00 
  29    4:10   0.00   32.4    91    7.6    65     9.4   857.8    0.00 
  29    4:20   0.00   32.8    90    7.1    62     9.2   857.8    0.00 
  29    4:30   0.00   32.8    90    6.7    67     8.3   857.8    0.00 
  29    4:40   0.00   33.0    90    6.6    60     8.6   857.8    0.00 
  29    4:50   0.00   33.2    90    5.1    61     7.1   857.9    0.00 
  29    5:00   0.00   33.4    89    7.2    62    10.9   857.8    0.00 
  29    5:10   0.00   33.4    89    8.5    74    10.6   857.7    0.00 
  29    5:20   0.00   33.2    90    8.1    70    11.0   857.7    0.00 
  29    5:30   0.00   33.6    89    8.5    72    11.2   857.6    0.00 
  29    5:40   0.00   34.1    88    8.9    73    12.0   857.6    0.00 
  29    5:50   0.00   34.1    87    8.0    70    10.4   857.5    0.00 
  29    6:00   0.00   34.0    88    7.7    64     9.4   857.4    0.00 
  29    6:10   0.00   33.7    88    7.4    69     9.8   857.4    0.00 
  29    6:20   0.00   33.5    89    7.0    78     8.8   857.6    0.00 
  29    6:30   0.00   33.6    89    7.1    76     8.7   857.6    0.00 
  29    6:40   0.00   33.8    88    6.0    81     7.5   857.7    0.00 
  29    6:50   0.00   33.6    88    5.8    80     8.0   857.7    0.00 
  29    7:00   0.00   33.7    88    6.8    79     8.9   857.7    0.00 
  29    7:10   0.00   33.8    88    7.5    78     9.6   857.7    0.00 
  29    7:20   0.01   33.9    88    6.8    76     8.1   857.8    0.00 
  29    7:30   0.01   34.2    87    7.7    65    10.1   857.8    0.00 
  29    7:40   0.02   34.2    87    6.4    63     9.0   857.9    0.00 
  29    7:50   0.03   34.0    88    6.5    65     8.5   857.9    0.00 
  29    8:00   0.04   33.9    88    5.5    66     7.7   857.8    0.00 
  29    8:10   0.07   34.1    88    3.9    74     5.7   857.9    0.00 
  29    8:20   0.11   34.3    88    4.9    70     6.1   857.9    0.00 
  29    8:30   0.14   34.8    88    5.1    67     6.9   857.9    0.00 
  29    8:40   0.15   35.7    86    7.2    71     9.5   857.8    0.00 
  29    8:50   0.14   36.0    86    7.1    72     9.4   857.8    0.00 
  29    9:00   0.13   36.4    85    7.1    67     9.3   857.7    0.00 
  29    9:10   0.13   36.7    85    5.7    62     7.7   857.7    0.00 
  29    9:20   0.15   37.2    85    5.6    61     7.8   857.7    0.00 
  29    9:30   0.17   37.7    84    6.0    64     8.2   857.9    0.00 
  29    9:40   0.17   38.2    84    7.0    65     9.3   857.8    0.00 
  29    9:50   0.18   38.5    82    8.3    60    11.5   857.8    0.00 
  29   10:00   0.20   38.8    81    8.3    54    11.6   857.9    0.00 
  29   10:10   0.22   39.1    81    8.2    60    11.6   858.0    0.00 
  29   10:20   0.24   39.4    80    8.3    58    12.0   858.0    0.00 
  29   10:30   0.25   39.6    79    9.0    58    11.5   858.1    0.00 
  29   10:40   0.27   40.0    78    9.4    57    11.8   858.0    0.00 
  29   10:50   0.30   40.3    77    9.5    54    12.6   857.9    0.00 
  29   11:00   0.32   40.7    76   10.1    50    12.5   857.9    0.00 
  29   11:10   0.37   41.2    75    9.6    48    13.4   857.9    0.00 
  29   11:20   0.43   41.9    74    9.5    49    13.4   857.8    0.00 
  29   11:30   0.41   42.4    72    8.9    47    12.1   857.7    0.00 
  29   11:40   0.32   42.3    71    9.0    41    12.1   857.6    0.00 
  29   11:50   0.30   42.7    72    8.4    43    11.6   857.5    0.00 
  29   12:00   0.35   43.4    70    9.3    48    11.6   857.3    0.00 
  29   12:10   0.49   44.1    69   10.1    57    13.1   857.1    0.00 
  29   12:20   0.53   44.9    67   10.4    51    13.8   857.0    0.00 
  29   12:30   0.53   45.0    66   10.4    51    13.4   856.9    0.00 
  29   12:40   0.36   44.6    67   10.1    56    13.7   856.8    0.00 
  29   12:50   0.40   45.2    66    9.0    49    12.6   856.6    0.00 
  29   13:00   0.45   45.8    64    9.3    46    12.0   856.4    0.00 
  29   13:10   0.35   45.9    65   10.2    50    13.1   856.3    0.00 
  29   13:20   0.31   45.7    65   10.4    44    12.6   856.1    0.00 
  29   13:30   0.28   45.6    65   10.6    44    13.7   856.0    0.00 
  29   13:40   0.27   45.5    66   10.7    41    13.4   855.9    0.00 
  29   13:50   0.25   45.6    65   11.1    43    14.3   855.7    0.00 
  29   14:00   0.25   45.5    65   11.7    43    14.8   855.7    0.00 
  29   14:10   0.23   45.6    65   11.1    47    14.4   855.6    0.00 
  29   14:20   0.24   45.8    65   11.4    47    15.5   855.6    0.00 
  29   14:30   0.26   46.0    64   11.1    49    14.2   855.5    0.00 
  29   14:40   0.34   46.6    64   10.8    47    14.5   855.5    0.00 
  29   14:50   0.37   47.2    63   11.0    48    14.8   855.5    0.00 
  29   15:00   0.40   47.4    62   11.6    49    14.8   855.5    0.00 
  29   15:10   0.34   47.8    61   11.2    51    14.6   855.4    0.00 
  29   15:20   0.36   48.3    60   11.2    47    14.5   855.4    0.00 
  29   15:30   0.26   48.5    60   10.8    44    14.0   855.4    0.00 
  29   15:40   0.11   47.4    62    9.9    44    13.8   855.4    0.00 
  29   15:50   0.08   46.7    64    9.2    42    12.9   855.4    0.00 
  29   16:00   0.09   46.4    66    9.1    43    12.0   855.4    0.00 
  29   16:10   0.09   46.3    66    9.5    45    12.9   855.2    0.00 
  29   16:20   0.08   46.2    67    9.5    43    13.1   855.2    0.00 
  29   16:30   0.06   45.9    68    9.4    37    12.4   855.2    0.00 
  29   16:40   0.05   45.7    67   10.3    32    14.4   855.1    0.00 
  29   16:50   0.03   45.3    66    9.1    29    12.5   855.2    0.00 
  29   17:00   0.02   44.9    67    8.6    31    11.5   855.2    0.00 
  29   17:10   0.01   44.6    68    8.1    24    11.0   855.2    0.00 
  29   17:20   0.01   44.3    69    7.1    18    10.2   855.3    0.00 
  29   17:30   0.00   43.9    70    4.5    21     7.2   855.3    0.00 
  29   17:40   0.00   43.5    71    3.8    28     5.4   855.3    0.00 
  29   17:50   0.00   42.7    74    2.7    63     3.9   855.3    0.00 
  29   18:00   0.00   42.1    77    3.8    82     4.5   855.3    0.00 
  29   18:10   0.00   42.3    77    4.4    72     5.3   855.3    0.00 
  29   18:20   0.00   41.9    78    5.0    66     6.0   855.3    0.00 
  29   18:30   0.00   41.6    79    4.0    58     5.8   855.4    0.00 
  29   18:40   0.00   41.3    80    4.0    50     5.2   855.5    0.00 
  29   18:50   0.00   42.3    76    6.1    30     7.8   855.5    0.00 
  29   19:00   0.00   42.7    74    6.1    25     8.6   855.5    0.00 
  29   19:10   0.00   42.9    72    7.2    18     9.3   855.5    0.00 
  29   19:20   0.00   43.1    71    8.2    20    11.8   855.5    0.00 
  29   19:30   0.00   43.2    70    9.1    19    12.0   855.5    0.00 
  29   19:40   0.00   42.4    73    5.7    45     9.4   855.5    0.00 
  29   19:50   0.00   41.1    78    5.0    65     7.7   855.5    0.00 
  29   20:00   0.00   40.8    79    5.1    88     6.3   855.5    0.00 
  29   20:10   0.00   40.5    80    4.8    95     6.0   855.4    0.00 
  29   20:20   0.00   40.7    79    5.2    94     8.0   855.4    0.00 
  29   20:30   0.00   40.6    80    4.5    68     5.9   855.3    0.00 
  29   20:40   0.00   40.5    80    4.8    73     6.6   855.3    0.00 
  29   20:50   0.00   40.8    79    5.5    74     7.0   855.2    0.00 
  29   21:00   0.00   40.4    80    5.2    66     7.2   855.2    0.00 
  29   21:10   0.00   40.5    80    6.1    61     9.5   855.2    0.00 
  29   21:20   0.00   40.2    80    5.8    55     7.0   855.1    0.00 

Return to Antelope Valley graphs page.


Western Regional Climate Center,wrcc@dri.edu